createdAt,value
2018-07-12T00:00:12.342Z,0
2018-07-12T00:01:14.008Z,0
2018-07-12T00:02:15.675Z,0
2018-07-12T00:03:17.370Z,0
2018-07-12T00:04:19.042Z,0
2018-07-12T00:05:20.710Z,0
2018-07-12T00:06:22.370Z,0
2018-07-12T00:07:34.038Z,0
2018-07-12T00:08:35.698Z,0
2018-07-12T00:09:37.364Z,0
2018-07-12T00:10:39.047Z,0
2018-07-12T00:11:40.700Z,0
2018-07-12T00:12:42.372Z,0
2018-07-12T00:13:44.033Z,0
2018-07-12T00:14:45.698Z,0
2018-07-12T00:15:47.355Z,0
2018-07-12T00:16:49.023Z,0
2018-07-12T00:17:50.693Z,0
2018-07-12T00:18:52.358Z,0
2018-07-12T00:19:54.029Z,0
2018-07-12T00:20:55.690Z,0
2018-07-12T00:21:57.869Z,0
2018-07-12T00:22:59.530Z,0
2018-07-12T00:24:01.194Z,0
2018-07-12T00:25:02.881Z,0
2018-07-12T00:26:04.550Z,0
2018-07-12T00:27:06.211Z,0
2018-07-12T00:28:07.876Z,0
2018-07-12T00:29:09.540Z,0
2018-07-12T00:30:11.202Z,0
2018-07-12T00:31:12.873Z,0
2018-07-12T00:32:14.531Z,0
2018-07-12T00:33:16.193Z,0
2018-07-12T00:34:17.865Z,0
2018-07-12T00:35:19.528Z,0
2018-07-12T00:36:21.189Z,0
2018-07-12T00:37:22.857Z,0
2018-07-12T00:38:24.533Z,0
2018-07-12T00:39:26.194Z,0
2018-07-12T00:40:27.853Z,0
2018-07-12T00:41:29.520Z,0
2018-07-12T00:42:31.185Z,0
2018-07-12T00:43:32.843Z,0
2018-07-12T00:44:34.504Z,0
2018-07-12T00:45:36.177Z,0
2018-07-12T00:46:37.842Z,0
2018-07-12T00:47:39.505Z,0
2018-07-12T00:48:41.185Z,0
2018-07-12T00:49:42.838Z,0
2018-07-12T00:50:44.509Z,0
2018-07-12T00:51:46.172Z,0
2018-07-12T00:52:47.842Z,0
2018-07-12T00:53:49.502Z,0
2018-07-12T00:54:51.169Z,0
2018-07-12T00:55:52.832Z,0
2018-07-12T00:56:54.506Z,0
2018-07-12T00:57:56.178Z,0
2018-07-12T00:58:57.844Z,0
2018-07-12T00:59:59.506Z,0
2018-07-12T01:01:01.187Z,0
2018-07-12T01:02:02.864Z,0
2018-07-12T01:03:04.525Z,0
2018-07-12T01:04:06.187Z,0
2018-07-12T01:05:07.848Z,0
2018-07-12T01:06:09.513Z,0
2018-07-12T01:07:11.175Z,0
2018-07-12T01:08:12.841Z,0
2018-07-12T01:09:14.499Z,0
2018-07-12T01:10:16.164Z,0
2018-07-12T01:11:17.828Z,0
2018-07-12T01:12:19.497Z,0
2018-07-12T01:13:21.161Z,0
2018-07-12T01:14:22.823Z,0
2018-07-12T01:15:24.484Z,0
2018-07-12T01:16:26.147Z,0
2018-07-12T01:17:27.810Z,0
2018-07-12T01:18:29.475Z,0
2018-07-12T01:19:31.132Z,0
2018-07-12T01:20:32.801Z,0
2018-07-12T01:21:34.459Z,0
2018-07-12T01:22:36.121Z,0
2018-07-12T01:23:37.786Z,0
2018-07-12T01:24:39.447Z,0
2018-07-12T01:25:41.105Z,0
2018-07-12T01:26:42.768Z,0
2018-07-12T01:27:44.444Z,0
2018-07-12T01:28:46.109Z,0
2018-07-12T01:29:47.774Z,0
2018-07-12T01:30:49.452Z,0
2018-07-12T01:31:51.115Z,0
2018-07-12T01:32:52.779Z,0
2018-07-12T01:33:54.445Z,0
2018-07-12T01:34:56.111Z,0
2018-07-12T01:35:57.825Z,0
2018-07-12T01:36:59.452Z,0
2018-07-12T01:38:01.117Z,0
2018-07-12T01:39:02.781Z,0
2018-07-12T01:40:04.441Z,0
2018-07-12T01:41:06.128Z,0
2018-07-12T01:42:07.787Z,0
2018-07-12T01:43:09.455Z,0
2018-07-12T01:44:11.119Z,0
2018-07-12T01:45:12.782Z,0
2018-07-12T01:46:14.447Z,0
2018-07-12T01:47:16.109Z,0
2018-07-12T01:48:17.771Z,0
2018-07-12T01:49:19.433Z,0
2018-07-12T01:50:21.100Z,0
2018-07-12T01:51:22.758Z,0
2018-07-12T01:52:24.427Z,0
2018-07-12T01:53:26.086Z,0
2018-07-12T01:54:27.748Z,0
2018-07-12T02:01:06.815Z,0
2018-07-12T02:02:08.476Z,0
2018-07-12T02:04:00.392Z,0
2018-07-12T02:05:02.054Z,0
2018-07-12T02:06:54.043Z,0
2018-07-12T02:07:55.773Z,0
2018-07-12T02:08:57.434Z,0
2018-07-12T02:09:59.092Z,0
2018-07-12T02:11:00.753Z,0
2018-07-12T02:12:02.413Z,0
2018-07-12T02:13:04.083Z,0
2018-07-12T02:14:05.777Z,0
2018-07-12T02:15:07.441Z,0
2018-07-12T02:16:09.098Z,0
2018-07-12T02:17:10.761Z,0
2018-07-12T02:18:12.433Z,0
2018-07-12T02:19:14.090Z,0
2018-07-12T02:20:15.754Z,0
2018-07-12T02:21:17.434Z,0
2018-07-12T02:22:19.086Z,0
2018-07-12T02:23:20.752Z,0
2018-07-12T02:24:22.420Z,0
2018-07-12T02:25:24.102Z,0
2018-07-12T02:26:25.763Z,0
2018-07-12T02:27:27.453Z,0
2018-07-12T02:28:29.109Z,0
2018-07-12T02:29:30.770Z,0
2018-07-12T02:30:32.441Z,0
2018-07-12T02:31:34.104Z,0
2018-07-12T02:32:35.771Z,0
2018-07-12T02:33:37.398Z,0
2018-07-12T02:34:39.056Z,0
2018-07-12T02:35:40.740Z,0
2018-07-12T02:36:42.394Z,0
2018-07-12T02:37:44.059Z,0
2018-07-12T02:38:45.713Z,0
2018-07-12T02:39:47.379Z,0
2018-07-12T02:40:49.046Z,0
2018-07-12T02:41:50.719Z,0
2018-07-12T02:42:52.387Z,0
2018-07-12T02:43:54.058Z,0
2018-07-12T02:44:55.720Z,0
2018-07-12T02:45:57.379Z,0
2018-07-12T02:46:59.038Z,0
2018-07-12T02:48:00.695Z,0
2018-07-12T02:49:02.363Z,0
2018-07-12T02:50:04.031Z,0
2018-07-12T02:51:05.725Z,0
2018-07-12T02:52:07.389Z,0
2018-07-12T02:53:09.044Z,0
2018-07-12T02:54:10.717Z,0
2018-07-12T02:55:12.380Z,0
2018-07-12T02:56:14.049Z,0
2018-07-12T02:57:15.713Z,0
2018-07-12T02:58:17.380Z,0
2018-07-12T02:59:19.044Z,0
2018-07-12T03:00:20.710Z,0
2018-07-12T03:01:22.376Z,0
2018-07-12T03:02:24.042Z,0
2018-07-12T03:03:25.710Z,0
2018-07-12T03:04:27.371Z,0
2018-07-12T03:05:29.039Z,0
2018-07-12T03:06:30.713Z,0
2018-07-12T03:07:32.371Z,0
2018-07-12T03:08:34.038Z,0
2018-07-12T03:09:35.707Z,0
2018-07-12T03:10:37.373Z,0
2018-07-12T03:11:39.040Z,0
2018-07-12T03:12:40.704Z,0
2018-07-12T03:13:42.353Z,0
2018-07-12T03:14:44.028Z,0
2018-07-12T03:15:45.686Z,0
2018-07-12T03:16:47.354Z,5
2018-07-12T03:17:49.023Z,5
2018-07-12T03:18:50.681Z,5
2018-07-12T03:19:52.353Z,5
2018-07-12T03:20:54.013Z,5
2018-07-12T03:21:55.684Z,5
2018-07-12T03:22:57.356Z,5
2018-07-12T03:23:59.017Z,5
2018-07-12T03:25:00.686Z,5
2018-07-12T03:26:10.668Z,5
2018-07-12T03:27:11.739Z,5
2018-07-12T03:28:13.403Z,5
2018-07-12T03:29:15.061Z,5
2018-07-12T03:30:16.732Z,10
2018-07-12T03:31:18.403Z,10
2018-07-12T03:32:20.073Z,10
2018-07-12T03:33:21.732Z,10
2018-07-12T03:34:23.397Z,10
2018-07-12T03:35:25.062Z,10
2018-07-12T03:36:26.729Z,10
2018-07-12T03:37:28.390Z,10
2018-07-12T03:38:30.054Z,10
2018-07-12T03:39:31.729Z,15
2018-07-12T03:40:33.427Z,20
2018-07-12T03:41:35.069Z,20
2018-07-12T03:42:36.742Z,20
2018-07-12T03:43:38.405Z,20
2018-07-12T03:44:40.069Z,20
2018-07-12T03:45:41.746Z,25
2018-07-12T03:46:43.422Z,25
2018-07-12T03:47:45.089Z,30
2018-07-12T03:48:46.764Z,35
2018-07-12T03:49:48.428Z,40
2018-07-12T03:50:50.095Z,50
2018-07-12T03:51:51.762Z,55
2018-07-12T03:52:53.433Z,60
2018-07-12T03:53:55.093Z,70
2018-07-12T03:54:56.765Z,75
2018-07-12T03:55:58.424Z,75
2018-07-12T03:57:00.103Z,75
2018-07-12T03:58:01.801Z,70
2018-07-12T03:59:03.449Z,70
2018-07-12T04:00:05.138Z,75
2018-07-12T04:01:06.816Z,75
2018-07-12T04:02:08.480Z,75
2018-07-12T04:03:10.155Z,80
2018-07-12T04:04:11.825Z,80
2018-07-12T04:05:13.489Z,85
2018-07-12T04:06:15.161Z,85
2018-07-12T04:07:16.827Z,90
2018-07-12T04:08:18.501Z,95
2018-07-12T04:09:20.229Z,100
2018-07-12T04:10:21.893Z,100
2018-07-12T04:11:23.558Z,105
2018-07-12T04:12:25.237Z,110
2018-07-12T04:13:26.908Z,110
2018-07-12T04:14:28.578Z,120
2018-07-12T04:15:30.247Z,135
2018-07-12T04:16:31.913Z,150
2018-07-12T04:17:33.583Z,155
2018-07-12T04:18:35.251Z,140
2018-07-12T04:19:36.922Z,130
2018-07-12T04:20:38.593Z,125
2018-07-12T04:21:40.264Z,125
2018-07-12T04:22:41.932Z,125
2018-07-12T04:23:43.604Z,130
2018-07-12T04:24:45.275Z,130
2018-07-12T04:25:46.942Z,125
2018-07-12T04:26:48.609Z,120
2018-07-12T04:27:50.274Z,120
2018-07-12T04:28:51.944Z,120
2018-07-12T04:29:53.619Z,125
2018-07-12T04:30:55.287Z,130
2018-07-12T04:31:56.956Z,135
2018-07-12T04:32:58.622Z,135
2018-07-12T04:34:00.282Z,130
2018-07-12T04:35:01.951Z,135
2018-07-12T04:36:03.679Z,145
2018-07-12T04:37:05.389Z,160
2018-07-12T04:38:07.058Z,170
2018-07-12T04:39:08.784Z,175
2018-07-12T04:40:10.399Z,160
2018-07-12T04:41:12.072Z,155
2018-07-12T04:42:13.744Z,160
2018-07-12T04:43:15.422Z,170
2018-07-12T04:44:17.097Z,170
2018-07-12T04:45:19.639Z,155
2018-07-12T04:46:21.310Z,155
2018-07-12T04:47:23.002Z,165
2018-07-12T04:48:24.679Z,170
2018-07-12T04:49:26.342Z,160
2018-07-12T04:50:28.011Z,150
2018-07-12T04:51:29.682Z,150
2018-07-12T04:52:31.349Z,145
2018-07-12T04:53:33.021Z,145
2018-07-12T04:54:34.694Z,170
2018-07-12T04:55:36.363Z,185
2018-07-12T04:56:38.044Z,195
2018-07-12T04:57:39.715Z,205
2018-07-12T04:58:41.382Z,195
2018-07-12T04:59:43.051Z,185
2018-07-12T05:00:44.730Z,170
2018-07-12T05:01:46.401Z,165
2018-07-12T05:02:48.072Z,165
2018-07-12T05:03:49.745Z,185
2018-07-12T05:04:51.465Z,195
2018-07-12T05:05:53.140Z,195
2018-07-12T05:06:54.808Z,235
2018-07-12T05:07:56.485Z,295
2018-07-12T05:08:58.152Z,310
2018-07-12T05:09:59.819Z,315
2018-07-12T05:11:01.491Z,310
2018-07-12T05:12:03.168Z,305
2018-07-12T05:13:04.845Z,305
2018-07-12T05:14:06.522Z,305
2018-07-12T05:15:08.198Z,305
2018-07-12T05:16:09.896Z,315
2018-07-12T05:17:11.547Z,320
2018-07-12T05:18:13.212Z,325
2018-07-12T05:19:15.457Z,330
2018-07-12T05:20:17.125Z,350
2018-07-12T05:21:18.803Z,405
2018-07-12T05:22:20.474Z,495
2018-07-12T05:23:22.146Z,505
2018-07-12T05:24:23.820Z,445
2018-07-12T05:25:25.994Z,345
2018-07-12T05:26:27.662Z,310
2018-07-12T05:27:29.333Z,300
2018-07-12T05:28:31.009Z,280
2018-07-12T05:29:32.682Z,250
2018-07-12T05:30:34.351Z,220
2018-07-12T05:31:36.026Z,205
2018-07-12T05:32:37.694Z,200
2018-07-12T05:33:39.369Z,230
2018-07-12T05:34:41.045Z,265
2018-07-12T05:35:42.725Z,260
2018-07-12T05:36:44.395Z,250
2018-07-12T05:37:46.070Z,275
2018-07-12T05:38:47.737Z,290
2018-07-12T05:39:49.405Z,300
2018-07-12T05:40:51.068Z,325
2018-07-12T05:41:52.744Z,345
2018-07-12T05:42:54.415Z,355
2018-07-12T05:43:56.556Z,365
2018-07-12T05:44:58.235Z,355
2018-07-12T05:46:00.555Z,350
2018-07-12T05:47:02.264Z,335
2018-07-12T05:48:03.928Z,320
2018-07-12T05:49:05.636Z,295
2018-07-12T05:50:07.926Z,270
2018-07-12T05:51:09.607Z,260
2018-07-12T05:52:11.279Z,250
2018-07-12T05:53:12.947Z,240
2018-07-12T05:54:14.617Z,230
2018-07-12T05:55:16.299Z,230
2018-07-12T06:01:55.903Z,255
2018-07-12T06:02:57.595Z,255
2018-07-12T06:03:59.246Z,270
2018-07-12T06:05:00.924Z,280
2018-07-12T06:06:02.594Z,280
2018-07-12T06:07:04.261Z,295
2018-07-12T06:08:05.974Z,290
2018-07-12T06:09:07.650Z,295
2018-07-12T06:10:09.322Z,305
2018-07-12T06:11:10.989Z,330
2018-07-12T06:12:12.680Z,375
2018-07-12T06:13:14.424Z,460
2018-07-12T06:14:16.028Z,490
2018-07-12T06:15:17.703Z,455
2018-07-12T06:16:19.377Z,430
2018-07-12T06:17:21.052Z,430
2018-07-12T06:18:22.718Z,425
2018-07-12T06:19:24.392Z,420
2018-07-12T06:20:26.061Z,460
2018-07-12T06:21:27.741Z,520
2018-07-12T06:22:29.411Z,525
2018-07-12T06:23:31.083Z,470
2018-07-12T06:24:32.764Z,460
2018-07-12T06:25:34.427Z,460
2018-07-12T06:26:36.102Z,435
2018-07-12T06:27:37.774Z,425
2018-07-12T06:28:39.455Z,455
2018-07-12T06:29:41.129Z,450
2018-07-12T06:30:42.801Z,455
2018-07-12T06:31:44.471Z,500
2018-07-12T06:32:46.153Z,545
2018-07-12T06:33:47.828Z,515
2018-07-12T06:34:49.502Z,500
2018-07-12T06:35:51.171Z,515
2018-07-12T06:36:52.841Z,535
2018-07-12T06:37:54.511Z,545
2018-07-12T06:38:56.191Z,575
2018-07-12T06:39:57.894Z,590
2018-07-12T06:40:59.575Z,575
2018-07-12T06:42:01.248Z,570
2018-07-12T06:43:02.941Z,545
2018-07-12T06:44:04.621Z,515
2018-07-12T06:45:07.667Z,485
2018-07-12T06:46:09.177Z,430
2018-07-12T06:47:10.846Z,385
2018-07-12T06:48:12.563Z,400
2018-07-12T06:49:14.240Z,425
2018-07-12T06:50:15.909Z,435
2018-07-12T06:51:17.596Z,405
2018-07-12T06:52:19.344Z,375
2018-07-12T06:53:21.016Z,380
2018-07-12T06:54:22.701Z,375
2018-07-12T06:55:24.377Z,385
2018-07-12T06:56:26.052Z,405
2018-07-12T06:57:27.742Z,415
2018-07-12T06:58:29.418Z,395
2018-07-12T06:59:31.090Z,360
2018-07-12T07:00:33.476Z,355
2018-07-12T07:01:35.266Z,395
2018-07-12T07:02:37.457Z,490
2018-07-12T07:03:39.132Z,575
2018-07-12T07:04:40.855Z,625
2018-07-12T07:05:42.497Z,635
2018-07-12T07:06:44.172Z,615
2018-07-12T07:07:45.846Z,605
2018-07-12T07:08:47.524Z,620
2018-07-12T07:09:49.195Z,595
2018-07-12T07:10:50.875Z,545
2018-07-12T07:11:52.549Z,465
2018-07-12T07:12:54.221Z,395
2018-07-12T07:13:55.903Z,405
2018-07-12T07:14:57.586Z,460
2018-07-12T07:15:59.260Z,480
2018-07-12T07:17:00.949Z,515
2018-07-12T07:18:02.632Z,595
2018-07-12T07:19:04.332Z,715
2018-07-12T07:20:06.047Z,830
2018-07-12T07:21:07.804Z,940
2018-07-12T07:22:09.485Z,930
2018-07-12T07:23:11.169Z,900
2018-07-12T07:24:12.840Z,855
2018-07-12T07:25:14.647Z,860
2018-07-12T07:26:16.362Z,795
2018-07-12T07:27:18.019Z,905
2018-07-12T07:28:19.711Z,870
2018-07-12T07:29:21.384Z,815
2018-07-12T07:30:23.048Z,830
2018-07-12T07:31:24.730Z,785
2018-07-12T07:32:26.449Z,730
2018-07-12T07:33:28.076Z,785
2018-07-12T07:34:29.754Z,880
2018-07-12T07:35:31.466Z,960
2018-07-12T07:36:33.261Z,930
2018-07-12T07:37:34.946Z,875
2018-07-12T07:38:36.844Z,805
2018-07-12T07:39:38.527Z,720
2018-07-12T07:40:40.222Z,655
2018-07-12T07:41:41.906Z,660
2018-07-12T07:42:43.597Z,695
2018-07-12T07:43:45.270Z,715
2018-07-12T07:44:46.958Z,750
2018-07-12T07:45:48.631Z,775
2018-07-12T07:46:50.805Z,780
2018-07-12T07:47:52.510Z,790
2018-07-12T07:48:54.195Z,765
2018-07-12T07:49:55.885Z,755
2018-07-12T07:50:57.597Z,785
2018-07-12T07:51:59.315Z,735
2018-07-12T07:53:00.985Z,635
2018-07-12T07:54:02.662Z,605
2018-07-12T07:55:04.577Z,565
2018-07-12T07:56:06.270Z,530
2018-07-12T07:57:07.960Z,465
2018-07-12T07:58:09.933Z,390
2018-07-12T07:59:11.590Z,360
2018-07-12T08:00:13.303Z,325
2018-07-12T08:01:14.971Z,295
2018-07-12T08:02:16.656Z,295
2018-07-12T08:03:18.403Z,315
2018-07-12T08:04:20.029Z,340
2018-07-12T08:05:21.739Z,355
2018-07-12T08:06:23.427Z,330
2018-07-12T08:07:25.099Z,300
2018-07-12T08:08:26.776Z,280
2018-07-12T08:09:28.484Z,285
2018-07-12T08:10:30.120Z,310
2018-07-12T08:11:31.802Z,345
2018-07-12T08:12:33.476Z,370
2018-07-12T08:13:35.160Z,435
2018-07-12T08:14:36.837Z,525
2018-07-12T08:15:38.512Z,595
2018-07-12T08:16:40.191Z,690
2018-07-12T08:17:41.880Z,830
2018-07-12T08:18:43.577Z,935
2018-07-12T08:19:45.276Z,960
2018-07-12T08:20:46.972Z,1035
2018-07-12T08:21:48.643Z,1060
2018-07-12T08:22:50.666Z,1050
2018-07-12T08:23:52.348Z,965
2018-07-12T08:24:54.030Z,970
2018-07-12T08:25:55.700Z,945
2018-07-12T08:26:57.395Z,1015
2018-07-12T08:27:59.084Z,1135
2018-07-12T08:29:00.746Z,1165
2018-07-12T08:30:02.527Z,775
2018-07-12T08:31:04.080Z,680
2018-07-12T08:32:05.790Z,615
2018-07-12T08:33:07.542Z,605
2018-07-12T08:34:09.214Z,645
2018-07-12T08:35:10.884Z,750
2018-07-12T08:36:12.656Z,800
2018-07-12T08:37:14.291Z,785
2018-07-12T08:38:15.972Z,805
2018-07-12T08:39:17.652Z,840
2018-07-12T08:40:19.328Z,840
2018-07-12T08:41:21.026Z,810
2018-07-12T08:42:22.713Z,715
2018-07-12T08:43:24.404Z,680
2018-07-12T08:44:26.073Z,700
2018-07-12T08:45:27.820Z,760
2018-07-12T08:46:29.509Z,795
2018-07-12T08:47:31.190Z,845
2018-07-12T08:48:32.868Z,885
2018-07-12T08:49:34.559Z,890
2018-07-12T08:50:36.240Z,815
2018-07-12T08:51:37.930Z,810
2018-07-12T08:52:39.604Z,780
2018-07-12T08:53:41.303Z,880
2018-07-12T08:54:43.050Z,965
2018-07-12T08:55:44.675Z,950
2018-07-12T08:56:46.365Z,915
2018-07-12T08:57:48.042Z,900
2018-07-12T08:58:49.731Z,915
2018-07-12T08:59:51.424Z,1040
2018-07-12T09:00:53.092Z,1565
2018-07-12T09:01:54.787Z,1290
2018-07-12T09:02:56.466Z,1150
2018-07-12T09:03:58.153Z,1345
2018-07-12T09:04:59.843Z,2465
2018-07-12T09:06:01.513Z,1145
2018-07-12T09:07:03.193Z,2335
2018-07-12T09:08:04.890Z,1275
2018-07-12T09:09:06.591Z,2440
2018-07-12T09:10:08.281Z,2435
2018-07-12T09:11:09.975Z,2900
2018-07-12T09:12:11.650Z,3000
2018-07-12T09:13:13.357Z,1180
2018-07-12T09:14:15.061Z,1175
2018-07-12T09:15:16.790Z,1205
2018-07-12T09:16:18.473Z,2770
2018-07-12T09:17:20.163Z,1485
2018-07-12T09:18:21.845Z,1475
2018-07-12T09:19:23.538Z,1215
2018-07-12T09:20:25.267Z,1080
2018-07-12T09:21:26.977Z,995
2018-07-12T09:22:28.666Z,1085
2018-07-12T09:23:30.345Z,1050
2018-07-12T09:24:32.024Z,1145
2018-07-12T09:25:33.737Z,1170
2018-07-12T09:26:35.390Z,1075
2018-07-12T09:27:37.094Z,990
2018-07-12T09:28:38.775Z,985
2018-07-12T09:29:40.466Z,1075
2018-07-12T09:30:42.195Z,1030
2018-07-12T09:31:43.838Z,1085
2018-07-12T09:32:45.520Z,1095
2018-07-12T09:33:47.195Z,1035
2018-07-12T09:34:48.915Z,1005
2018-07-12T09:35:50.600Z,1070
2018-07-12T09:36:52.285Z,1310
2018-07-12T09:37:53.974Z,1660
2018-07-12T09:38:55.661Z,1625
2018-07-12T09:39:57.341Z,1495
2018-07-12T09:40:59.021Z,1280
2018-07-12T09:42:00.854Z,1195
2018-07-12T09:43:02.781Z,1155
2018-07-12T09:44:04.597Z,1115
2018-07-12T09:45:06.297Z,1135
2018-07-12T09:46:07.988Z,1285
2018-07-12T09:47:09.689Z,1555
2018-07-12T09:48:11.370Z,1805
2018-07-12T09:50:22.788Z,1100
2018-07-12T09:52:34.130Z,1005
2018-07-12T09:53:35.820Z,895
2018-07-12T10:01:29.702Z,745
2018-07-12T10:02:31.390Z,775
2018-07-12T10:04:23.366Z,830
2018-07-12T10:05:25.044Z,910
2018-07-12T10:06:26.723Z,1070
2018-07-12T10:07:28.403Z,1815
2018-07-12T10:08:30.079Z,2950
2018-07-12T10:09:31.758Z,1630
2018-07-12T10:10:33.451Z,1470
2018-07-12T10:11:35.137Z,2230
2018-07-12T10:12:36.817Z,4085
2018-07-12T10:13:38.492Z,2980
2018-07-12T10:14:40.202Z,4045
2018-07-12T10:15:41.889Z,1320
2018-07-12T10:16:43.573Z,3705
2018-07-12T10:17:45.257Z,4000
2018-07-12T10:18:46.967Z,4190
2018-07-12T10:19:48.652Z,4315
2018-07-12T10:20:50.329Z,2115
2018-07-12T10:21:52.003Z,2030
2018-07-12T10:22:53.724Z,4260
2018-07-12T10:23:55.410Z,3865
2018-07-12T10:24:57.099Z,4140
2018-07-12T10:25:58.825Z,1790
2018-07-12T10:27:00.469Z,3725
2018-07-12T10:28:02.163Z,4080
2018-07-12T10:29:03.849Z,4320
2018-07-12T10:30:05.567Z,4550
2018-07-12T10:31:07.255Z,4660
2018-07-12T10:32:08.942Z,4780
2018-07-12T10:33:12.396Z,1985
2018-07-12T10:34:14.069Z,3700
2018-07-12T10:35:15.916Z,1075
2018-07-12T10:36:17.599Z,805
2018-07-12T10:37:19.298Z,705
2018-07-12T10:38:21.262Z,685
2018-07-12T10:39:23.116Z,780
2018-07-12T10:40:25.000Z,915
2018-07-12T10:41:26.663Z,1000
2018-07-12T10:42:28.394Z,1140
2018-07-12T10:43:30.888Z,1230
2018-07-12T10:44:32.901Z,4725
2018-07-12T10:45:34.561Z,2810
2018-07-12T10:46:36.256Z,1250
2018-07-12T10:47:37.955Z,3760
2018-07-12T10:48:39.638Z,2510
2018-07-12T10:49:41.338Z,1380
2018-07-12T10:50:43.131Z,1415
2018-07-12T10:51:44.997Z,2430
2018-07-12T10:52:46.696Z,1940
2018-07-12T10:53:48.833Z,3055
2018-07-12T10:54:50.534Z,1920
2018-07-12T10:55:52.226Z,2440
2018-07-12T10:56:54.055Z,4130
2018-07-12T10:57:56.022Z,4475
2018-07-12T10:58:58.067Z,1870
2018-07-12T10:59:59.660Z,1310
2018-07-12T11:01:01.377Z,1780
2018-07-12T11:02:03.392Z,1315
2018-07-12T11:03:05.675Z,1140
2018-07-12T11:04:07.465Z,1085
2018-07-12T11:05:09.529Z,1090
2018-07-12T11:06:11.657Z,975
2018-07-12T11:07:13.757Z,1025
2018-07-12T11:08:16.116Z,1135
2018-07-12T11:09:17.941Z,1215
2018-07-12T11:10:20.358Z,1210
2018-07-12T11:11:22.063Z,1175
2018-07-12T11:12:24.128Z,1245
2018-07-12T11:13:26.180Z,1560
2018-07-12T11:14:28.282Z,1935
2018-07-12T11:15:30.343Z,1650
2018-07-12T11:16:32.488Z,3515
2018-07-12T11:17:34.134Z,1430
2018-07-12T11:18:36.850Z,4280
2018-07-12T11:19:38.934Z,2595
2018-07-12T11:20:40.957Z,3185
2018-07-12T11:21:42.701Z,4205
2018-07-12T11:22:44.466Z,4125
2018-07-12T11:23:46.235Z,4230
2018-07-12T11:24:48.650Z,4295
2018-07-12T11:25:50.439Z,4455
2018-07-12T11:26:52.286Z,4560
2018-07-12T11:27:54.397Z,3875
2018-07-12T11:28:56.165Z,1330
2018-07-12T11:29:58.293Z,1315
2018-07-12T11:31:00.312Z,905
2018-07-12T11:32:02.199Z,870
2018-07-12T11:33:04.524Z,795
2018-07-12T11:34:06.788Z,730
2018-07-12T11:35:08.725Z,730
2018-07-12T11:36:13.423Z,795
2018-07-12T11:37:15.182Z,870
2018-07-12T11:38:17.003Z,1080
2018-07-12T11:39:19.885Z,995
2018-07-12T11:40:21.979Z,975
2018-07-12T11:41:24.157Z,1055
2018-07-12T11:42:26.191Z,3945
2018-07-12T11:43:28.482Z,3900
2018-07-12T11:44:31.484Z,4175
2018-07-12T11:45:33.701Z,4055
2018-07-12T11:46:35.476Z,4050
2018-07-12T11:47:37.668Z,2720
2018-07-12T11:48:39.653Z,3960
2018-07-12T11:49:41.459Z,3860
2018-07-12T11:50:43.282Z,4000
2018-07-12T11:51:45.085Z,4065
2018-07-12T11:52:47.247Z,4055
2018-07-12T11:53:49.531Z,3275
2018-07-12T11:54:52.032Z,3890
2018-07-12T11:55:54.096Z,1790
2018-07-12T11:56:56.403Z,2060
2018-07-12T11:57:58.731Z,1090
2018-07-12T11:59:01.000Z,675
2018-07-12T12:00:03.251Z,655
2018-07-12T12:01:06.104Z,700
2018-07-12T12:02:07.965Z,690
2018-07-12T12:03:09.703Z,2095
2018-07-12T12:04:12.617Z,830
2018-07-12T12:05:14.760Z,2570
2018-07-12T12:06:16.617Z,1680
2018-07-12T12:07:19.350Z,1575
2018-07-12T12:08:21.130Z,1210
2018-07-12T12:09:23.254Z,1080
2018-07-12T12:10:25.077Z,985
2018-07-12T12:11:27.159Z,910
2018-07-12T12:12:29.267Z,1575
2018-07-12T12:13:31.167Z,2900
2018-07-12T12:14:32.907Z,3635
2018-07-12T12:15:34.715Z,3400
2018-07-12T12:16:36.522Z,3580
2018-07-12T12:17:38.422Z,3705
2018-07-12T12:18:40.768Z,3660
2018-07-12T12:19:42.733Z,3670
2018-07-12T12:20:44.528Z,3855
2018-07-12T12:21:46.625Z,1590
2018-07-12T12:22:48.654Z,1310
2018-07-12T12:23:50.466Z,1380
2018-07-12T12:24:52.343Z,890
2018-07-12T12:25:54.510Z,820
2018-07-12T12:26:56.641Z,825
2018-07-12T12:27:58.734Z,820
2018-07-12T12:29:02.236Z,905
2018-07-12T12:30:04.097Z,1115
2018-07-12T12:31:05.860Z,3770
2018-07-12T12:32:07.973Z,3795
2018-07-12T12:33:09.792Z,3740
2018-07-12T12:34:11.976Z,3735
2018-07-12T12:35:14.298Z,1250
2018-07-12T12:36:16.638Z,1140
2018-07-12T12:37:18.440Z,2070
2018-07-12T12:38:20.701Z,2995
2018-07-12T12:39:22.814Z,3540
2018-07-12T12:40:24.693Z,3605
2018-07-12T12:41:26.803Z,3515
2018-07-12T12:42:28.632Z,3465
2018-07-12T12:43:31.052Z,3500
2018-07-12T12:44:32.987Z,3430
2018-07-12T12:45:35.464Z,3400
2018-07-12T12:46:38.030Z,3395
2018-07-12T12:47:40.324Z,3325
2018-07-12T12:48:42.514Z,3295
2018-07-12T12:49:44.336Z,3315
2018-07-12T12:50:48.469Z,1540
2018-07-12T12:51:50.704Z,3250
2018-07-12T12:52:52.457Z,3150
2018-07-12T12:53:54.972Z,3180
2018-07-12T12:54:57.003Z,1795
2018-07-12T12:55:59.334Z,3140
2018-07-12T12:57:01.620Z,3195
2018-07-12T12:58:03.441Z,3170
2018-07-12T12:59:05.345Z,3165
2018-07-12T13:00:07.527Z,3330
2018-07-12T13:01:09.597Z,3295
2018-07-12T13:02:12.050Z,785
2018-07-12T13:03:13.902Z,675
2018-07-12T13:04:15.721Z,680
2018-07-12T13:05:17.528Z,695
2018-07-12T13:06:19.285Z,795
2018-07-12T13:07:21.119Z,855
2018-07-12T13:08:22.912Z,980
2018-07-12T13:09:24.884Z,3080
2018-07-12T13:10:26.820Z,3115
2018-07-12T13:11:28.689Z,3105
2018-07-12T13:12:30.511Z,3115
2018-07-12T13:13:32.270Z,3110
2018-07-12T13:14:34.161Z,3055
2018-07-12T13:15:35.961Z,3040
2018-07-12T13:16:37.724Z,3040
2018-07-12T13:17:39.500Z,3015
2018-07-12T13:18:41.345Z,2980
2018-07-12T13:19:43.270Z,3005
2018-07-12T13:20:45.059Z,2985
2018-07-12T13:21:46.995Z,2875
2018-07-12T13:22:48.925Z,3020
2018-07-12T13:23:51.048Z,3120
2018-07-12T13:24:53.102Z,3150
2018-07-12T13:25:54.929Z,3135
2018-07-12T13:26:56.814Z,3155
2018-07-12T13:27:58.745Z,1020
2018-07-12T13:29:00.686Z,950
2018-07-12T13:30:02.573Z,985
2018-07-12T13:31:04.522Z,3110
2018-07-12T13:32:06.456Z,3170
2018-07-12T13:33:08.337Z,2600
2018-07-12T13:34:10.233Z,1160
2018-07-12T13:35:12.189Z,3180
2018-07-12T13:36:14.206Z,1000
2018-07-12T13:37:16.222Z,2575
2018-07-12T13:38:18.100Z,2120
2018-07-12T13:39:20.060Z,2725
2018-07-12T13:40:22.023Z,3095
2018-07-12T13:41:23.914Z,2980
2018-07-12T13:42:25.839Z,2865
2018-07-12T13:43:27.769Z,2920
2018-07-12T13:44:29.708Z,2865
2018-07-12T13:45:31.579Z,2895
2018-07-12T13:46:33.543Z,2790
2018-07-12T13:47:35.424Z,2810
2018-07-12T13:48:37.302Z,2860
2018-07-12T13:49:39.251Z,2930
2018-07-12T13:50:41.154Z,2825
2018-07-12T13:51:43.135Z,2790
2018-07-12T13:52:45.010Z,2805
2018-07-12T13:53:46.961Z,2790
2018-07-12T13:54:49.103Z,2845
2018-07-12T14:01:01.129Z,2735
2018-07-12T14:02:02.918Z,740
2018-07-12T14:03:04.855Z,700
2018-07-12T14:04:06.604Z,685
2018-07-12T14:05:08.350Z,685
2018-07-12T14:06:09.927Z,790
2018-07-12T14:07:11.613Z,1500
2018-07-12T14:08:13.398Z,2745
2018-07-12T14:09:15.402Z,2765
2018-07-12T14:10:17.090Z,2805
2018-07-12T14:11:18.792Z,2850
2018-07-12T14:12:20.508Z,2965
2018-07-12T14:13:22.194Z,2830
2018-07-12T14:14:23.890Z,2685
2018-07-12T14:15:25.611Z,2725
2018-07-12T14:16:27.347Z,865
2018-07-12T14:17:29.039Z,760
2018-07-12T14:18:30.721Z,725
2018-07-12T14:19:32.409Z,725
2018-07-12T14:20:34.100Z,750
2018-07-12T14:21:35.797Z,2305
2018-07-12T14:22:37.480Z,2700
2018-07-12T14:23:39.199Z,2710
2018-07-12T14:24:40.901Z,2640
2018-07-12T14:25:42.580Z,2545
2018-07-12T14:26:44.268Z,2600
2018-07-12T14:27:45.980Z,2625
2018-07-12T14:28:47.687Z,2615
2018-07-12T14:29:49.437Z,2630
2018-07-12T14:30:51.142Z,2495
2018-07-12T14:31:52.847Z,2530
2018-07-12T14:32:54.699Z,2420
2018-07-12T14:33:56.390Z,2440
2018-07-12T14:34:58.095Z,2525
2018-07-12T14:35:59.791Z,2505
2018-07-12T14:37:01.534Z,2505
2018-07-12T14:38:03.218Z,2480
2018-07-12T14:39:04.908Z,2410
2018-07-12T14:40:06.591Z,2475
2018-07-12T14:41:08.269Z,2540
2018-07-12T14:42:09.979Z,2575
2018-07-12T14:43:11.662Z,2560
2018-07-12T14:44:13.357Z,1260